Time;durP1;ratioP1;P1;durP2;ratioP2;P2;SDS_P1;SDS_P2;PMS_P1;PMS_P2;Temp;Humidity;BMP_temperature;BMP_pressure;BME280_temperature;BME280_humidity;BME280_pressure;Samples;Min_cycle;Max_cycle;Signal;HPM_P1;HPM_P2
2022/02/16 00:00:25;;;;;;;14.43;7.85;;;;;;;19.22;45.17;100598.03;5003801;28;20403;-66
2022/02/16 00:02:50;;;;;;;13.05;7.95;;;;;;;19.21;45.05;100591.94;5005652;28;20026;-64
2022/02/16 00:05:17;;;;;;;10.07;6.65;;;;;;;19.20;45.09;100600.06;5006131;28;20061;-64
2022/02/16 00:07:43;;;;;;;11.93;6.22;;;;;;;19.18;45.14;100592.31;5006013;28;20030;-63
2022/02/16 00:10:10;;;;;;;9.48;6.28;;;;;;;19.18;44.91;100602.06;5006256;28;20026;-64
2022/02/16 00:12:36;;;;;;;9.07;6.22;;;;;;;19.18;44.88;100604.72;5005322;28;20508;-63
2022/02/16 00:15:01;;;;;;;11.68;6.28;;;;;;;19.16;44.71;100593.53;5004404;28;20042;-63
2022/02/16 00:17:27;;;;;;;8.70;5.68;;;;;;;19.15;44.69;100590.06;5004521;28;20072;-63
2022/02/16 00:19:52;;;;;;;11.25;6.25;;;;;;;19.13;44.87;100593.91;5004547;28;20041;-63
2022/02/16 00:22:18;;;;;;;8.73;5.88;;;;;;;19.14;44.75;100600.84;5005258;28;20378;-64
2022/02/16 00:24:43;;;;;;;12.00;5.78;;;;;;;19.14;44.71;100592.91;5004964;28;20048;-64
2022/02/16 00:27:09;;;;;;;9.35;5.50;;;;;;;19.13;44.75;100593.91;5007110;28;20029;-64
2022/02/16 00:29:34;;;;;;;6.95;5.22;;;;;;;19.13;44.72;100596.56;5008472;28;20169;-64
2022/02/16 00:31:59;;;;;;;10.60;6.13;;;;;;;19.12;44.76;100602.84;5007232;28;20030;-64
2022/02/16 00:34:25;;;;;;;9.05;4.82;;;;;;;19.12;44.79;100603.66;5005919;28;20789;-63
2022/02/16 00:36:50;;;;;;;9.23;5.20;;;;;;;19.12;44.81;100605.50;4998065;28;20044;-64
2022/02/16 00:39:16;;;;;;;8.77;4.90;;;;;;;19.10;44.73;100613.63;5008430;28;20025;-66
2022/02/16 00:41:41;;;;;;;7.13;4.80;;;;;;;19.09;44.59;100609.34;5009589;28;20068;-64
2022/02/16 00:44:07;;;;;;;8.98;4.35;;;;;;;19.10;44.40;100615.44;5007529;28;20144;-64
2022/02/16 00:46:32;;;;;;;9.05;4.88;;;;;;;19.08;44.41;100610.34;5008715;28;20030;-63
2022/02/16 00:48:58;;;;;;;7.63;4.60;;;;;;;19.06;44.52;100616.84;5007554;28;20553;-64
2022/02/16 00:51:23;;;;;;;9.35;5.10;;;;;;;19.04;44.41;100616.22;5008039;28;20473;-63
2022/02/16 00:53:49;;;;;;;6.25;3.78;;;;;;;19.02;44.48;100612.97;5007148;28;20496;-64
2022/02/16 00:56:14;;;;;;;5.93;3.83;;;;;;;19.01;44.51;100613.97;5007142;28;20089;-63
2022/02/16 00:58:40;;;;;;;6.63;3.58;;;;;;;19.01;44.44;100611.34;5007997;28;20437;-64
2022/02/16 01:01:05;;;;;;;7.03;4.10;;;;;;;18.98;44.38;100604.63;5008466;28;20040;-64
2022/02/16 01:03:30;;;;;;;7.72;3.97;;;;;;;18.96;44.40;100604.00;5007700;28;20367;-64
2022/02/16 01:05:56;;;;;;;7.35;4.03;;;;;;;18.96;44.43;100617.19;5008512;28;20072;-64
2022/02/16 01:08:21;;;;;;;8.38;3.20;;;;;;;18.94;44.37;100611.28;5008184;28;20496;-63
2022/02/16 01:10:47;;;;;;;5.38;3.45;;;;;;;18.93;44.40;100607.03;5007995;28;20057;-64
2022/02/16 01:13:12;;;;;;;5.63;3.30;;;;;;;18.92;44.39;100602.75;5008167;28;20038;-64
2022/02/16 01:15:38;;;;;;;5.43;3.30;;;;;;;18.91;44.32;100603.75;5007462;28;20379;-63
2022/02/16 01:18:03;;;;;;;5.68;2.70;;;;;;;18.90;44.34;100600.31;5007229;28;20451;-64
2022/02/16 01:20:28;;;;;;;4.50;2.47;;;;;;;18.92;44.39;100600.09;5008685;28;20036;-63
2022/02/16 01:22:54;;;;;;;4.40;2.70;;;;;;;18.93;44.22;100598.28;5007888;28;20475;-64
2022/02/16 01:25:19;;;;;;;4.18;2.40;;;;;;;18.94;44.36;100606.00;5009015;28;20032;-64
2022/02/16 01:27:45;;;;;;;4.13;2.13;;;;;;;18.95;44.25;100598.91;5009215;28;20344;-63
2022/02/16 01:30:11;;;;;;;5.50;3.00;;;;;;;18.96;44.28;100597.91;5007339;28;20033;-64
2022/02/16 01:32:37;;;;;;;4.15;2.40;;;;;;;18.95;44.06;100596.28;5008073;28;20052;-63
2022/02/16 01:35:04;;;;;;;5.45;2.58;;;;;;;18.94;44.09;100599.91;5005804;28;20556;-63
2022/02/16 01:37:30;;;;;;;4.70;2.95;;;;;;;18.94;44.20;100594.63;5008543;28;20053;-63
2022/02/16 01:39:56;;;;;;;3.40;2.42;;;;;;;18.93;44.06;100596.47;5006571;28;20537;-64
2022/02/16 01:42:22;;;;;;;4.05;2.13;;;;;;;18.94;44.05;100592.00;5004935;28;20056;-65
2022/02/16 01:44:48;;;;;;;4.68;2.10;;;;;;;18.93;44.10;100599.09;5003729;28;20049;-64
2022/02/16 01:47:13;;;;;;;4.15;2.33;;;;;;;18.93;44.07;100595.66;5006256;28;20313;-64
2022/02/16 01:49:40;;;;;;;3.65;1.98;;;;;;;18.92;44.08;100600.09;5006694;28;20037;-64
2022/02/16 01:52:07;;;;;;;4.28;2.30;;;;;;;18.92;44.02;100596.66;5008000;28;20095;-64
2022/02/16 01:54:34;;;;;;;4.72;1.88;;;;;;;18.90;44.17;100600.31;5004888;28;20029;-63
2022/02/16 01:57:00;;;;;;;2.53;1.67;;;;;;;18.90;43.96;100592.38;5008783;28;20541;-64
2022/02/16 01:59:26;;;;;;;2.85;1.65;;;;;;;18.87;44.12;100590.16;5006792;28;20121;-64
2022/02/16 02:01:52;;;;;;;4.13;1.80;;;;;;;18.86;44.06;100593.00;5008026;28;20026;-64
2022/02/16 02:04:20;;;;;;;2.92;1.52;;;;;;;18.83;44.03;100599.47;5006412;28;20025;-64
2022/02/16 02:06:46;;;;;;;3.58;1.58;;;;;;;18.81;44.05;100593.59;5007767;28;20419;-64
2022/02/16 02:09:13;;;;;;;3.53;1.70;;;;;;;18.79;43.99;100590.31;5006317;28;20070;-64
2022/02/16 02:11:40;;;;;;;3.00;1.38;;;;;;;18.79;43.98;100585.03;5271435;23;20258;-47
2022/02/16 02:14:07;;;;;;;2.45;1.30;;;;;;;18.79;43.79;100587.69;5006783;28;20045;-50
2022/02/16 02:16:36;;;;;;;2.70;1.40;;;;;;;18.76;43.98;100582.78;5006708;28;20410;-49
2022/02/16 02:19:01;;;;;;;2.92;1.35;;;;;;;18.76;44.06;100587.25;5007948;28;20099;-43
2022/02/16 02:21:27;;;;;;;2.50;1.40;;;;;;;18.74;44.04;100582.16;5007921;28;20484;-50
2022/02/16 02:23:54;;;;;;;2.15;1.05;;;;;;;18.72;44.15;100576.28;5008244;28;20075;-45
2022/02/16 02:26:20;;;;;;;2.75;1.17;;;;;;;18.72;43.85;100573.63;5008197;28;20389;-45
2022/02/16 02:28:46;;;;;;;4.28;1.45;;;;;;;18.70;44.08;100575.66;5008201;28;20022;-42
2022/02/16 02:31:12;;;;;;;1.88;1.30;;;;;;;18.69;43.87;100568.75;5006335;28;20044;-42
2022/02/16 02:33:37;;;;;;;3.25;1.63;;;;;;;18.68;43.97;100569.75;5008015;28;20026;-47
2022/02/16 02:36:05;;;;;;;2.58;1.40;;;;;;;18.68;43.92;100571.56;5007238;28;20030;-51
2022/02/16 02:38:32;;;;;;;1.55;0.90;;;;;;;18.67;43.89;100572.59;5007766;28;20030;-50
2022/02/16 02:41:00;;;;;;;1.98;0.88;;;;;;;18.66;43.89;100573.59;5006845;28;20281;-48
2022/02/16 02:43:27;;;;;;;1.95;0.98;;;;;;;18.68;44.03;100575.03;5007944;28;20026;-52
2022/02/16 02:45:54;;;;;;;2.00;1.08;;;;;;;18.69;43.83;100571.38;5004519;28;20149;-48
2022/02/16 02:48:24;;;;;;;2.13;0.80;;;;;;;18.69;43.97;100574.03;5006840;28;20099;-44
2022/02/16 02:50:51;;;;;;;2.60;1.13;;;;;;;18.70;43.94;100577.47;5007507;28;20041;-46
2022/02/16 02:53:16;;;;;;;2.70;0.77;;;;;;;18.69;43.97;100576.66;5008018;28;20034;-43
2022/02/16 02:55:42;;;;;;;1.52;1.08;;;;;;;18.70;44.03;100573.00;5007661;28;20060;-45
2022/02/16 02:58:08;;;;;;;3.20;1.13;;;;;;;18.69;43.98;100576.66;5006110;28;20025;-44
2022/02/16 03:00:34;;;;;;;2.47;0.80;;;;;;;18.68;43.83;100580.31;5007712;28;20037;-47
2022/02/16 03:02:59;;;;;;;2.47;0.80;;;;;;;18.68;43.91;100579.50;5007518;28;20088;-41
2022/02/16 03:05:25;;;;;;;1.85;0.70;;;;;;;18.67;43.87;100586.59;5007626;28;20318;-44
2022/02/16 03:07:50;;;;;;;1.63;0.60;;;;;;;18.67;43.63;100572.59;5007828;28;20042;-46
2022/02/16 03:10:16;;;;;;;1.42;0.50;;;;;;;18.64;43.92;100573.78;5007387;28;20022;-45
2022/02/16 03:12:42;;;;;;;2.47;0.52;;;;;;;18.61;43.80;100571.53;5018041;28;20165;-44
2022/02/16 03:15:08;;;;;;;1.55;0.70;;;;;;;18.61;43.76;100574.16;5026803;28;20045;-45
2022/02/16 03:17:34;;;;;;;1.73;0.50;;;;;;;18.59;43.75;100573.53;5027165;28;20037;-42
2022/02/16 03:20:00;;;;;;;1.27;0.50;;;;;;;18.58;43.80;100583.25;5026872;28;20018;-46
2022/02/16 03:22:25;;;;;;;0.98;0.50;;;;;;;18.57;43.78;100580.81;5026616;28;20444;-46
2022/02/16 03:24:51;;;;;;;1.58;0.57;;;;;;;18.56;43.92;100581.81;5026689;28;20189;-46
2022/02/16 03:27:16;;;;;;;1.30;0.50;;;;;;;18.55;43.85;100581.00;5027109;28;20037;-48
2022/02/16 03:29:42;;;;;;;1.85;0.50;;;;;;;18.53;43.75;100583.03;5026895;28;20103;-46
2022/02/16 03:32:07;;;;;;;1.13;0.50;;;;;;;18.54;43.91;100573.28;5026854;28;20033;-46
2022/02/16 03:34:33;;;;;;;1.98;0.50;;;;;;;18.55;43.93;100573.09;5008609;28;20080;-45
2022/02/16 03:36:59;;;;;;;1.25;0.50;;;;;;;18.56;43.85;100580.00;5026820;28;20812;-42
2022/02/16 03:39:24;;;;;;;1.88;0.47;;;;;;;18.56;43.85;100574.72;5026509;28;20028;-43
2022/02/16 03:41:49;;;;;;;1.38;0.40;;;;;;;18.58;43.78;100582.44;5026474;28;20037;-49
2022/02/16 03:44:15;;;;;;;1.40;0.50;;;;;;;18.57;43.87;100576.34;5026464;28;20059;-50
2022/02/16 03:46:43;;;;;;;1.67;0.50;;;;;;;18.58;43.73;100571.88;5026514;28;20092;-45
2022/02/16 03:49:08;;;;;;;1.27;0.40;;;;;;;18.58;43.84;100571.88;5026710;28;20035;-45
2022/02/16 03:51:34;;;;;;;1.00;0.40;;;;;;;18.58;43.89;100571.88;5026373;28;20029;-44
2022/02/16 03:54:00;;;;;;;1.10;0.40;;;;;;;18.56;43.87;100566.00;5026482;28;20122;-44
2022/02/16 03:56:26;;;;;;;1.27;0.30;;;;;;;18.57;43.83;100571.06;5026919;28;20045;-43
2022/02/16 03:58:51;;;;;;;1.13;0.40;;;;;;;18.56;43.71;100573.91;5027506;28;20144;-44
2022/02/16 04:01:17;;;;;;;0.82;0.40;;;;;;;18.56;43.51;100574.72;5030739;28;20025;-47
2022/02/16 04:03:43;;;;;;;0.80;0.32;;;;;;;18.56;43.58;100571.25;5030367;28;20040;-45
2022/02/16 04:06:08;;;;;;;1.17;0.40;;;;;;;18.56;43.40;100581.81;5030279;28;20037;-43
2022/02/16 04:08:34;;;;;;;0.60;0.40;;;;;;;18.54;43.43;100574.09;5030296;28;20128;-43
2022/02/16 04:10:59;;;;;;;1.02;0.35;;;;;;;18.54;43.47;100578.56;5030304;28;20293;-44
2022/02/16 04:13:25;;;;;;;1.13;0.30;;;;;;;18.53;43.44;100577.75;5029895;28;20099;-46
2022/02/16 04:15:50;;;;;;;1.08;0.40;;;;;;;18.55;43.51;100577.56;5030214;28;20033;-42
2022/02/16 04:18:16;;;;;;;1.77;0.40;;;;;;;18.53;43.55;100574.28;5029874;28;20333;-49
2022/02/16 04:20:41;;;;;;;0.70;0.30;;;;;;;18.51;43.57;100578.94;5030193;28;20281;-44
2022/02/16 04:23:09;;;;;;;1.00;0.30;;;;;;;18.50;43.73;100575.50;5030069;28;20504;-46
2022/02/16 04:25:35;;;;;;;0.75;0.30;;;;;;;18.46;43.58;100582.16;5011930;28;20394;-45
2022/02/16 04:28:04;;;;;;;0.70;0.28;;;;;;;18.45;43.66;100585.81;5029877;28;20154;-43
2022/02/16 04:30:30;;;;;;;0.75;0.30;;;;;;;18.45;43.64;100590.25;5029824;28;20049;-42
2022/02/16 04:32:55;;;;;;;0.65;0.20;;;;;;;18.41;43.68;100581.94;5029721;28;20164;-44
2022/02/16 04:35:21;;;;;;;0.70;0.30;;;;;;;18.42;43.77;100582.75;5030091;28;20022;-41
2022/02/16 04:37:47;;;;;;;0.70;0.30;;;;;;;18.39;43.71;100581.31;5029891;28;20539;-46
2022/02/16 04:40:13;;;;;;;0.77;0.30;;;;;;;18.39;43.77;100583.16;5030132;28;20224;-45
2022/02/16 04:42:39;;;;;;;0.50;0.20;;;;;;;18.38;43.60;100582.34;5029771;28;20029;-43
2022/02/16 04:45:05;;;;;;;0.77;0.28;;;;;;;18.38;43.63;100578.88;5029765;28;20086;-52
2022/02/16 04:47:30;;;;;;;1.00;0.30;;;;;;;18.36;43.63;100586.97;5011719;28;20132;-44
2022/02/16 04:49:56;;;;;;;0.75;0.20;;;;;;;18.34;43.73;100590.81;5029896;28;20596;-46
2022/02/16 04:52:21;;;;;;;0.70;0.20;;;;;;;18.33;43.69;100591.81;5029461;28;20727;-48
2022/02/16 04:54:47;;;;;;;0.50;0.20;;;;;;;18.32;43.69;100587.56;5029366;28;20483;-44
2022/02/16 04:57:13;;;;;;;0.50;0.20;;;;;;;18.31;43.68;100599.13;5029401;28;20072;-49
2022/02/16 04:59:39;;;;;;;0.73;0.20;;;;;;;18.32;43.73;100595.47;5029345;28;20029;-46
2022/02/16 05:02:04;;;;;;;0.47;0.20;;;;;;;18.31;43.65;100596.47;5029390;28;20430;-49
2022/02/16 05:04:30;;;;;;;0.45;0.20;;;;;;;18.30;43.79;100594.84;5029403;28;20032;-49
2022/02/16 05:06:55;;;;;;;0.60;0.25;;;;;;;18.31;43.79;100594.66;5029479;28;20026;-43
2022/02/16 05:09:21;;;;;;;1.65;0.30;;;;;;;18.33;43.79;100582.09;5028500;28;20562;-42
2022/02/16 05:11:46;;;;;;;0.40;0.20;;;;;;;18.37;43.64;100585.16;5028639;28;20081;-46
2022/02/16 05:14:12;;;;;;;0.55;0.20;;;;;;;18.41;43.48;100583.78;5029013;28;20124;-44
2022/02/16 05:16:37;;;;;;;0.50;0.20;;;;;;;18.44;43.45;100581.53;5028682;28;20053;-40
2022/02/16 05:19:03;;;;;;;0.50;0.20;;;;;;;18.47;43.36;100580.34;5029133;28;20110;-52
2022/02/16 05:21:29;;;;;;;0.40;0.20;;;;;;;18.52;43.33;100580.56;5028910;28;20079;-44
2022/02/16 05:23:54;;;;;;;0.50;0.20;;;;;;;18.57;43.31;100572.91;5029016;28;20040;-43
2022/02/16 05:26:20;;;;;;;0.70;0.30;;;;;;;18.61;43.25;100568.91;5028931;28;20603;-42
2022/02/16 05:28:45;;;;;;;0.47;0.30;;;;;;;18.64;43.52;100571.16;5010804;28;20434;-46
2022/02/16 05:31:11;;;;;;;0.50;0.20;;;;;;;18.69;43.11;100570.56;5028754;28;20376;-43
2022/02/16 05:33:36;;;;;;;0.45;0.20;;;;;;;18.74;43.08;100566.34;5028909;28;20400;-44
2022/02/16 05:36:03;;;;;;;0.85;0.20;;;;;;;18.78;42.90;100567.56;5028826;28;20026;-44
2022/02/16 05:38:29;;;;;;;0.50;0.20;;;;;;;18.84;42.91;100569.44;5028535;28;20037;-49
2022/02/16 05:40:55;;;;;;;0.43;0.17;;;;;;;18.89;42.90;100574.94;5028726;28;20055;-46
2022/02/16 05:43:21;;;;;;;0.70;0.20;;;;;;;18.95;42.75;100577.78;5028620;28;20128;-49
2022/02/16 05:45:47;;;;;;;0.52;0.22;;;;;;;19.00;42.57;100572.72;5028659;28;20025;-46
2022/02/16 05:48:20;;;;;;;0.50;0.20;;;;;;;19.04;42.72;100588.00;5010555;28;20044;-44
2022/02/16 05:50:47;;;;;;;0.50;0.20;;;;;;;19.12;42.49;100587.00;5010435;28;20051;-46
2022/02/16 05:53:13;;;;;;;0.60;0.20;;;;;;;19.17;42.46;100595.97;5010412;28;20040;-45
2022/02/16 05:55:39;;;;;;;0.40;0.10;;;;;;;19.27;42.41;100600.91;5020377;28;20136;-48
2022/02/16 05:58:04;;;;;;;1.38;0.20;;;;;;;19.35;42.43;100610.47;5007852;28;20109;-49
2022/02/16 06:00:30;;;;;;;0.47;0.10;;;;;;;19.39;42.41;100609.84;5007585;28;20026;-49
2022/02/16 06:02:55;;;;;;;1.65;0.30;;;;;;;19.44;42.31;100606.63;5006526;28;20213;-49
2022/02/16 06:05:21;;;;;;;1.13;0.20;;;;;;;19.48;42.30;100606.03;5006844;28;20025;-44
2022/02/16 06:07:46;;;;;;;0.47;0.13;;;;;;;19.55;42.28;100612.16;5007866;28;20038;-47
2022/02/16 06:10:11;;;;;;;0.40;0.20;;;;;;;19.62;42.16;100608.75;5005449;28;20025;-46
2022/02/16 06:12:41;;;;;;;0.40;0.20;;;;;;;19.71;42.00;100618.13;5007573;28;20085;-47
2022/02/16 06:15:08;;;;;;;1.10;0.20;;;;;;;19.78;41.93;100624.22;4985452;28;20030;-48
2022/02/16 06:17:33;;;;;;;0.90;0.20;;;;;;;19.85;41.88;100630.31;5007857;28;20148;-41
2022/02/16 06:19:59;;;;;;;0.38;0.10;;;;;;;19.92;41.76;100628.50;5007646;28;20155;-50
2022/02/16 06:22:24;;;;;;;0.20;0.10;;;;;;;19.98;41.58;100633.00;5005255;28;20105;-44
2022/02/16 06:24:50;;;;;;;0.68;0.10;;;;;;;20.03;41.52;100641.13;5007918;28;20034;-48
2022/02/16 06:27:15;;;;;;;0.90;0.20;;;;;;;20.08;41.64;100633.41;5005923;28;20046;-48
2022/02/16 06:29:40;;;;;;;0.55;0.20;;;;;;;20.12;41.66;100642.56;5004990;28;20480;-43
2022/02/16 06:32:06;;;;;;;0.30;0.10;;;;;;;20.18;41.25;100646.25;5007904;28;20042;-43
2022/02/16 06:34:32;;;;;;;0.25;0.10;;;;;;;20.23;41.28;100656.22;5007146;28;20026;-46
2022/02/16 06:36:57;;;;;;;0.43;0.20;;;;;;;20.27;41.26;100654.78;5008331;28;20021;-41
2022/02/16 06:39:23;;;;;;;0.77;0.10;;;;;;;20.31;41.27;100656.03;5006883;28;20393;-44
2022/02/16 06:41:48;;;;;;;0.30;0.10;;;;;;;20.34;41.07;100658.22;5005080;28;20501;-45
2022/02/16 06:44:14;;;;;;;0.30;0.10;;;;;;;20.40;41.10;100652.97;5007776;28;20058;-49
2022/02/16 06:46:39;;;;;;;0.32;0.20;;;;;;;20.46;40.96;100659.28;5005570;28;20037;-49
2022/02/16 06:49:05;;;;;;;2.40;0.20;;;;;;;20.51;40.86;100662.13;5007324;28;20089;-50
2022/02/16 06:51:30;;;;;;;0.35;0.10;;;;;;;20.54;40.99;100665.19;5005051;28;20484;-43
2022/02/16 06:53:56;;;;;;;0.82;0.20;;;;;;;20.58;40.68;100673.53;5006781;28;20022;-41
2022/02/16 06:56:26;;;;;;;0.73;0.20;;;;;;;20.62;40.49;100673.94;5004347;28;20037;-45
2022/02/16 06:58:52;;;;;;;0.40;0.10;;;;;;;20.66;40.72;100677.81;4989729;28;20033;-52
2022/02/16 07:01:17;;;;;;;0.43;0.20;;;;;;;20.71;40.49;100683.31;5004448;28;20041;-42
2022/02/16 07:03:44;;;;;;;0.35;0.10;;;;;;;20.74;40.62;100694.31;5005226;28;20246;-43
2022/02/16 07:06:09;;;;;;;0.10;0.10;;;;;;;20.77;40.22;100691.25;5007608;28;20143;-45
2022/02/16 07:08:35;;;;;;;0.95;0.20;;;;;;;20.78;40.30;100690.22;5006715;28;20478;-47
2022/02/16 07:11:02;;;;;;;1.70;0.20;;;;;;;20.79;40.34;100691.84;5005695;28;20069;-49
2022/02/16 07:13:27;;;;;;;0.35;0.10;;;;;;;20.78;40.38;100681.47;4987785;28;20164;-44
2022/02/16 07:15:53;;;;;;;4.10;0.17;;;;;;;20.78;40.43;100686.75;5005953;28;20079;-43
2022/02/16 07:18:19;;;;;;;0.57;0.10;;;;;;;20.77;40.49;100688.59;5006918;28;20634;-42
2022/02/16 07:20:44;;;;;;;0.60;0.20;;;;;;;20.78;40.17;100684.94;5005826;28;20029;-44
2022/02/16 07:23:10;;;;;;;0.88;0.10;;;;;;;20.78;40.41;100684.94;5006293;28;20116;-43
2022/02/16 07:25:36;;;;;;;0.30;0.10;;;;;;;20.76;40.46;100686.97;5004317;28;20058;-47
2022/02/16 07:28:04;;;;;;;0.30;0.10;;;;;;;20.75;40.25;100690.63;5006816;28;20060;-45
2022/02/16 07:30:30;;;;;;;0.55;0.10;;;;;;;20.74;40.22;100694.31;5004159;28;20082;-43
2022/02/16 07:32:56;;;;;;;0.77;0.10;;;;;;;20.74;40.43;100696.13;5006556;28;20561;-49
2022/02/16 07:35:22;;;;;;;0.45;0.10;;;;;;;20.72;40.51;100690.22;5003455;28;20108;-49
2022/02/16 07:37:48;;;;;;;0.55;0.20;;;;;;;20.71;40.58;100693.91;5005023;28;20088;-46
2022/02/16 07:40:13;;;;;;;0.75;0.20;;;;;;;20.69;40.67;100690.63;5020193;28;20037;-44
2022/02/16 07:42:39;;;;;;;0.95;0.20;;;;;;;20.69;40.80;100695.94;5012423;28;20033;-45
2022/02/16 07:45:06;;;;;;;0.88;0.20;;;;;;;20.70;41.78;100698.38;5005084;28;20026;-44
2022/02/16 07:47:32;;;;;;;2.25;0.10;;;;;;;20.79;42.24;100696.34;5005573;28;20120;-43
2022/02/16 07:49:58;;;;;;;0.70;0.10;;;;;;;20.91;43.18;100702.63;5003593;28;20108;-43
2022/02/16 07:52:24;;;;;;;1.08;0.20;;;;;;;21.03;44.03;100702.81;5005245;28;20084;-47
2022/02/16 07:54:49;;;;;;;1.33;0.20;;;;;;;21.19;49.93;100705.00;5002694;28;20069;-45
2022/02/16 07:57:15;;;;;;;2.33;0.50;;;;;;;21.52;56.28;100705.72;5006033;28;20544;-45
2022/02/16 07:59:40;;;;;;;3.92;0.85;;;;;;;21.72;59.87;100707.50;5003727;28;20030;-44
2022/02/16 08:02:06;;;;;;;2.33;0.40;;;;;;;21.76;57.62;100711.31;5004433;28;20069;-42
2022/02/16 08:04:31;;;;;;;3.80;0.30;;;;;;;21.57;53.54;100709.59;5005727;28;20022;-42
2022/02/16 08:07:00;;;;;;;1.20;0.30;;;;;;;21.36;51.48;100713.31;5003980;28;20030;-42
2022/02/16 08:09:25;;;;;;;6.97;0.20;;;;;;;21.19;50.13;100710.31;5004953;28;20057;-44
2022/02/16 08:11:51;;;;;;;4.03;0.30;;;;;;;21.07;49.10;100706.66;5004939;28;20107;-47
2022/02/16 08:14:16;;;;;;;1.65;0.30;;;;;;;20.98;48.58;100710.56;5006053;28;20092;-45
2022/02/16 08:16:42;;;;;;;1.08;0.20;;;;;;;20.90;48.08;100703.63;5006046;28;20026;-52
2022/02/16 08:19:10;;;;;;;0.60;0.20;;;;;;;20.83;47.74;100698.34;5004690;28;20026;-47
2022/02/16 08:21:36;;;;;;;1.52;0.20;;;;;;;20.77;47.57;100701.84;4988639;28;20026;-54
2022/02/16 08:24:02;;;;;;;5.70;0.20;;;;;;;20.77;47.16;100696.53;5006317;28;20620;-46
2022/02/16 08:26:28;;;;;;;1.80;0.20;;;;;;;20.75;46.87;100695.94;5005352;28;20359;-49
2022/02/16 08:28:54;;;;;;;3.42;0.40;;;;;;;20.73;46.67;100687.38;5003540;28;20053;-43
2022/02/16 08:31:20;;;;;;;8.60;0.20;;;;;;;20.72;46.33;100684.94;5004540;28;20065;-44
2022/02/16 08:33:46;;;;;;;2.80;0.30;;;;;;;20.68;46.41;100683.72;5005240;28;20465;-45
2022/02/16 08:36:12;;;;;;;3.88;0.20;;;;;;;20.64;46.64;100685.97;5004543;28;20101;-46
2022/02/16 08:38:38;;;;;;;1.90;0.20;;;;;;;20.61;46.67;100682.91;5004183;28;20621;-43
2022/02/16 08:41:05;;;;;;;9.38;0.30;;;;;;;20.58;46.54;100681.47;5003197;28;20285;-52
2022/02/16 08:43:31;;;;;;;3.45;0.40;;;;;;;20.55;46.21;100679.25;5004959;28;20030;-47
2022/02/16 08:45:59;;;;;;;1.48;0.20;;;;;;;20.52;46.18;100683.09;5007761;28;20026;-47
2022/02/16 08:48:26;;;;;;;0.60;0.20;;;;;;;20.50;45.67;100681.69;5005831;28;20022;-50
2022/02/16 08:50:53;;;;;;;4.95;0.40;;;;;;;20.47;45.07;100687.38;5007063;28;20033;-47
2022/02/16 08:53:19;;;;;;;2.35;0.20;;;;;;;20.43;44.12;100686.16;5009468;28;20423;-47
2022/02/16 08:55:45;;;;;;;3.50;0.30;;;;;;;20.39;43.32;100684.94;5010154;28;20033;-47
2022/02/16 08:58:12;;;;;;;1.50;0.30;;;;;;;20.33;42.65;100672.47;5009535;28;20370;-48
2022/02/16 09:00:39;;;;;;;0.45;0.20;;;;;;;20.28;42.77;100678.41;4991880;28;20433;-43
2022/02/16 09:03:05;;;;;;;2.72;0.25;;;;;;;20.24;42.23;100666.59;5000544;28;20117;-44
2022/02/16 09:05:31;;;;;;;2.88;0.35;;;;;;;20.20;42.32;100666.19;5007187;28;20033;-46
2022/02/16 09:07:56;;;;;;;2.30;0.20;;;;;;;20.16;42.18;100661.50;5009704;28;20034;-42
2022/02/16 09:10:22;;;;;;;2.03;0.20;;;;;;;20.13;41.79;100660.06;5007560;28;20461;-51
2022/02/16 09:12:48;;;;;;;0.50;0.20;;;;;;;20.10;41.50;100667.59;5004994;28;20088;-44
2022/02/16 09:15:13;;;;;;;0.82;0.28;;;;;;;20.06;41.20;100669.81;5008745;28;20025;-46
2022/02/16 09:17:39;;;;;;;1.30;0.20;;;;;;;20.04;41.04;100663.91;5007534;28;20030;-47
2022/02/16 09:20:05;;;;;;;4.63;0.30;;;;;;;20.02;40.64;100662.50;4988376;28;20100;-48
2022/02/16 09:22:31;;;;;;;2.95;0.30;;;;;;;19.99;40.77;100660.25;5009489;28;20018;-48
2022/02/16 09:24:57;;;;;;;1.23;0.20;;;;;;;19.96;41.06;100653.53;5009418;28;20556;-47
2022/02/16 09:27:23;;;;;;;1.45;0.20;;;;;;;19.94;41.21;100655.56;5009097;28;20565;-47
2022/02/16 09:29:50;;;;;;;1.02;0.32;;;;;;;19.93;41.12;100653.94;5008986;28;20121;-46
2022/02/16 09:32:16;;;;;;;4.80;0.38;;;;;;;19.91;41.55;100653.31;5009293;28;20036;-51
2022/02/16 09:34:43;;;;;;;1.58;0.30;;;;;;;19.88;41.64;100657.16;5009161;28;20710;-49
2022/02/16 09:37:09;;;;;;;4.80;0.30;;;;;;;19.87;41.82;100652.09;5009141;28;20029;-49
2022/02/16 09:39:35;;;;;;;0.50;0.22;;;;;;;19.86;41.87;100650.47;5008853;28;20349;-51
2022/02/16 09:42:00;;;;;;;0.88;0.20;;;;;;;19.83;41.80;100648.25;5009115;28;20038;-48
2022/02/16 09:45:00;;;;;;;2.50;0.32;;;;;;;19.79;41.95;100653.13;5008740;28;20029;-51
2022/02/16 09:47:27;;;;;;;0.95;0.30;;;;;;;19.78;42.14;100648.03;5001666;28;20117;-50
2022/02/16 09:49:52;;;;;;;1.00;0.20;;;;;;;19.78;42.04;100653.31;5008810;28;20032;-46
2022/02/16 09:52:22;;;;;;;0.82;0.22;;;;;;;19.77;42.25;100660.44;5008627;28;20042;-45
2022/02/16 09:54:48;;;;;;;2.00;0.20;;;;;;;19.77;42.09;100652.50;5009096;28;20026;-45
2022/02/16 09:57:14;;;;;;;0.88;0.30;;;;;;;19.75;42.09;100649.25;5008685;28;20033;-49
2022/02/16 09:59:40;;;;;;;0.47;0.10;;;;;;;19.75;42.23;100643.94;5008659;28;20107;-49
2022/02/16 10:02:09;;;;;;;0.93;0.20;;;;;;;19.74;42.31;100642.31;5008876;28;20055;-48
2022/02/16 10:04:36;;;;;;;1.33;0.20;;;;;;;19.73;42.21;100643.34;5008409;28;20099;-50
2022/02/16 10:07:23;;;;;;;0.63;0.30;;;;;;;19.71;42.23;100644.53;5008521;28;20030;-47
2022/02/16 10:09:49;;;;;;;0.57;0.20;;;;;;;19.69;42.44;100646.56;5008478;28;20022;-48
2022/02/16 10:12:14;;;;;;;1.05;0.15;;;;;;;19.66;42.42;100647.78;5008277;28;20133;-48
2022/02/16 10:14:40;;;;;;;0.60;0.30;;;;;;;19.66;42.54;100652.25;5008091;28;20026;-50
2022/02/16 10:17:26;;;;;;;0.70;0.20;;;;;;;19.62;42.80;100645.75;5008139;28;20041;-44
2022/02/16 10:19:55;;;;;;;0.50;0.20;;;;;;;19.62;42.73;100643.09;5008263;28;20029;-47
2022/02/16 10:22:22;;;;;;;1.30;0.17;;;;;;;19.61;42.71;100644.91;5008007;28;20045;-46
2022/02/16 10:24:48;;;;;;;0.75;0.30;;;;;;;19.62;42.48;100646.56;5008398;28;20366;-47
2022/02/16 10:27:15;;;;;;;2.15;0.20;;;;;;;19.62;42.35;100643.09;5008032;28;20086;-44
2022/02/16 10:29:43;;;;;;;0.35;0.20;;;;;;;19.61;42.09;100634.34;5007928;28;20034;-44
2022/02/16 10:32:10;;;;;;;1.27;0.20;;;;;;;19.61;42.20;100631.72;5007960;28;20030;-47
2022/02/16 10:34:49;;;;;;;0.63;0.10;;;;;;;19.57;42.19;100630.47;5008335;28;20029;-42
2022/02/16 10:37:17;;;;;;;0.43;0.17;;;;;;;19.60;42.17;100623.97;5007688;28;20069;-48
2022/02/16 10:40:11;;;;;;;1.92;0.52;;;;;;;19.55;42.22;100622.75;5008093;28;20030;-47
2022/02/16 10:42:39;;;;;;;0.65;0.20;;;;;;;19.55;42.18;100620.09;4989970;28;20080;-43
2022/02/16 10:45:06;;;;;;;1.65;0.20;;;;;;;19.56;42.50;100618.28;4989926;28;20501;-43
2022/02/16 10:47:52;;;;;;;0.47;0.10;;;;;;;19.53;42.40;100610.75;5007658;28;20030;-43
2022/02/16 10:50:19;;;;;;;2.58;0.13;;;;;;;19.54;42.49;100604.44;4989932;28;20382;-46
2022/02/16 10:52:57;;;;;;;1.50;0.22;;;;;;;19.53;42.54;100601.00;5007603;28;20047;-47
2022/02/16 10:55:45;;;;;;;1.02;0.20;;;;;;;19.51;42.89;100597.72;4990094;28;20053;-46
2022/02/16 10:58:17;;;;;;;0.50;0.20;;;;;;;19.51;42.95;100592.44;5007661;28;20175;-45
2022/02/16 11:00:47;;;;;;;1.48;0.20;;;;;;;19.51;43.19;100592.44;5007731;28;20037;-43
2022/02/16 11:03:36;;;;;;;0.68;0.30;;;;;;;19.48;43.36;100590.16;5007413;28;20440;-48
2022/02/16 11:06:13;;;;;;;1.20;0.20;;;;;;;19.45;43.31;100587.91;5007650;28;20062;-48
2022/02/16 11:08:40;;;;;;;1.55;0.20;;;;;;;19.46;43.52;100583.44;4989132;28;20523;-50
2022/02/16 11:11:07;;;;;;;1.98;0.17;;;;;;;19.46;43.40;100584.25;4989417;28;20022;-49
2022/02/16 11:13:34;;;;;;;1.58;0.52;;;;;;;19.46;43.27;100578.97;5007242;28;20076;-45
2022/02/16 11:16:01;;;;;;;0.82;0.20;;;;;;;19.45;43.46;100581.81;5007467;28;20539;-47
2022/02/16 11:18:28;;;;;;;0.50;0.20;;;;;;;19.45;43.53;100576.53;4989410;28;20050;-48
2022/02/16 11:21:14;;;;;;;0.77;0.10;;;;;;;19.40;43.72;100574.50;5007115;28;20045;-44